createdAt,value
2018-01-15T10:52:45.965Z,990.77
2018-01-15T10:53:43.891Z,990.75
2018-01-15T10:54:43.894Z,990.69
2018-01-15T10:55:43.860Z,990.67
2018-01-15T10:56:43.848Z,990.61
2018-01-15T10:57:43.840Z,990.65
2018-01-15T10:58:43.826Z,990.64
2018-01-15T10:59:43.814Z,990.61
2018-01-15T11:00:43.806Z,990.6
2018-01-15T11:01:43.796Z,990.55
2018-01-15T11:02:43.785Z,990.55
2018-01-15T11:03:43.776Z,990.6
2018-01-15T11:04:43.767Z,990.52
2018-01-15T11:05:43.760Z,990.5
2018-01-15T11:06:43.749Z,990.43
2018-01-15T11:07:43.740Z,990.41
2018-01-15T11:08:43.752Z,990.4
2018-01-15T11:09:43.726Z,990.37
2018-01-15T11:10:43.715Z,990.35
2018-01-15T11:11:43.707Z,990.31
2018-01-15T11:12:43.700Z,990.32
2018-01-15T11:13:43.701Z,990.3
2018-01-15T11:14:43.684Z,990.27
2018-01-15T11:15:43.678Z,990.18
2018-01-15T11:16:43.669Z,990.21
2018-01-15T11:17:43.661Z,990.19
2018-01-15T11:18:43.653Z,990.09
2018-01-15T11:19:43.661Z,990.1
2018-01-15T11:20:43.639Z,990.06
2018-01-15T11:21:43.631Z,990.02
2018-01-15T11:22:43.632Z,990.03
2018-01-15T11:23:43.619Z,989.98
2018-01-15T11:24:43.616Z,989.98
2018-01-15T11:25:43.613Z,989.99
2018-01-15T11:26:43.603Z,989.99
2018-01-15T11:27:43.626Z,989.95
2018-01-15T11:28:43.581Z,989.92
2018-01-15T11:29:43.573Z,989.92
2018-01-15T11:30:43.600Z,989.88
2018-01-15T11:31:43.626Z,989.9
2018-01-15T11:32:43.558Z,989.83
2018-01-15T11:33:43.547Z,989.82
2018-01-15T11:34:43.546Z,989.81
2018-01-15T11:35:43.552Z,989.78
2018-01-15T11:36:43.527Z,989.74
2018-01-15T11:37:43.519Z,989.76
2018-01-15T11:38:43.515Z,989.76
2018-01-15T11:39:43.505Z,989.74
2018-01-15T11:40:43.497Z,989.7
2018-01-15T11:41:43.492Z,989.7
2018-01-15T11:42:43.484Z,989.64
2018-01-15T11:43:43.478Z,989.63
2018-01-15T11:44:43.470Z,989.55
2018-01-15T11:45:43.463Z,989.54
2018-01-15T11:46:43.457Z,989.46
2018-01-15T11:47:43.449Z,989.53
2018-01-15T11:48:43.447Z,989.52
2018-01-15T11:49:43.437Z,989.47
2018-01-15T11:50:43.429Z,989.41
2018-01-15T11:51:43.420Z,989.37
2018-01-15T11:52:43.415Z,989.42
2018-01-15T11:53:43.407Z,989.42
2018-01-15T11:54:43.404Z,989.42
2018-01-15T11:55:43.394Z,989.34
2018-01-15T11:56:43.387Z,989.36
2018-01-15T11:57:43.381Z,989.35
2018-01-15T11:58:43.370Z,989.33
2018-01-15T11:59:43.370Z,989.35
2018-01-15T12:00:43.361Z,989.34
2018-01-15T12:01:43.351Z,989.27
2018-01-15T12:02:43.344Z,989.24
2018-01-15T12:03:43.337Z,989.29
2018-01-15T12:04:43.330Z,989.21
2018-01-15T12:05:43.323Z,989.24
2018-01-15T12:06:43.319Z,989.17
2018-01-15T12:07:43.309Z,989.11
2018-01-15T12:08:43.333Z,989.11
2018-01-15T12:09:43.296Z,989.05
2018-01-15T12:10:43.289Z,989.08
2018-01-15T12:11:43.286Z,989.04
2018-01-15T12:12:43.283Z,988.98
2018-01-15T12:13:43.269Z,988.98
2018-01-15T12:14:43.264Z,988.93
2018-01-15T12:15:43.258Z,988.89
2018-01-15T12:16:43.251Z,988.89
2018-01-15T12:17:43.244Z,988.89
2018-01-15T12:18:43.237Z,988.88
2018-01-15T12:19:43.231Z,988.87
2018-01-15T12:20:43.226Z,988.87
2018-01-15T12:21:43.219Z,988.86
2018-01-15T12:22:43.222Z,988.85
2018-01-15T12:23:43.407Z,988.83
2018-01-15T12:24:43.202Z,988.81
2018-01-15T12:25:43.193Z,988.78
2018-01-15T12:26:43.188Z,988.78
2018-01-15T12:27:43.183Z,988.77
2018-01-15T12:28:43.175Z,988.69
2018-01-15T12:29:43.176Z,988.69
2018-01-15T12:30:43.164Z,988.68
2018-01-15T12:31:43.156Z,988.61
2018-01-15T12:32:43.150Z,988.6
2018-01-15T12:33:43.147Z,988.55
2018-01-15T12:34:43.138Z,988.47
2018-01-15T12:35:43.133Z,988.41
2018-01-15T12:36:43.134Z,988.45
2018-01-15T12:37:43.120Z,988.42
2018-01-15T12:38:45.815Z,988.36
2018-01-15T12:39:43.107Z,988.34
2018-01-15T12:40:43.101Z,988.33
2018-01-15T12:41:43.095Z,988.31
2018-01-15T12:42:43.088Z,988.26
2018-01-15T12:43:43.083Z,988.28
2018-01-15T12:44:43.077Z,988.31
2018-01-15T12:45:43.070Z,988.25
2018-01-15T12:46:43.065Z,988.24
2018-01-15T12:47:43.059Z,988.19
2018-01-15T12:48:43.051Z,988.16
2018-01-15T12:49:43.050Z,988.13
2018-01-15T12:50:43.040Z,988.13
2018-01-15T12:51:43.250Z,988.12
2018-01-15T12:52:43.264Z,988.12
2018-01-15T12:53:43.211Z,988.06
2018-01-15T12:54:43.020Z,988.06
2018-01-15T12:55:43.015Z,987.98
2018-01-15T12:56:43.002Z,987.97
2018-01-15T12:57:42.997Z,987.92
2018-01-15T12:58:42.989Z,987.85
2018-01-15T12:59:42.984Z,987.87
2018-01-15T13:00:42.977Z,987.9
2018-01-15T13:01:42.976Z,987.83
2018-01-15T13:02:42.975Z,987.86
2018-01-15T13:03:42.971Z,987.8
2018-01-15T13:04:43.164Z,987.83
2018-01-15T13:05:43.145Z,987.83
2018-01-15T13:06:42.942Z,987.81
2018-01-15T13:07:42.936Z,987.77
2018-01-15T13:08:42.946Z,987.74
2018-01-15T13:09:42.927Z,987.71
2018-01-15T13:10:42.919Z,987.59
2018-01-15T13:11:42.914Z,987.52
2018-01-15T13:12:42.907Z,987.53
2018-01-15T13:13:42.902Z,987.53
2018-01-15T13:14:42.894Z,987.51
2018-01-15T13:15:42.889Z,987.49
2018-01-15T13:16:42.883Z,987.48
2018-01-15T13:17:42.882Z,987.52
2018-01-15T13:18:43.106Z,987.43
2018-01-15T13:19:42.867Z,987.44
2018-01-15T13:20:42.859Z,987.44
2018-01-15T13:21:42.852Z,987.48
2018-01-15T13:22:42.849Z,987.47
2018-01-15T13:23:42.840Z,987.39
2018-01-15T13:24:42.835Z,987.42
2018-01-15T13:25:42.827Z,987.37
2018-01-15T13:26:42.821Z,987.37
2018-01-15T13:27:42.818Z,987.33
2018-01-15T13:28:42.820Z,987.32
2018-01-15T13:29:42.802Z,987.27
2018-01-15T13:30:42.797Z,987.3
2018-01-15T13:31:42.791Z,987.29
2018-01-15T13:32:42.793Z,987.3
2018-01-15T13:33:42.779Z,987.24
2018-01-15T13:34:42.771Z,987.2
2018-01-15T13:35:42.765Z,987.17
2018-01-15T13:36:42.757Z,987.16
2018-01-15T13:37:42.754Z,987.15
2018-01-15T13:38:42.752Z,987.12
2018-01-15T13:39:42.739Z,987.15
2018-01-15T13:40:42.781Z,987.11
2018-01-15T13:41:42.731Z,987.06
2018-01-15T13:42:42.721Z,987.09
2018-01-15T13:43:42.715Z,987.11
2018-01-15T13:44:42.708Z,987.06
2018-01-15T13:45:42.703Z,987
2018-01-15T13:46:42.696Z,986.91
2018-01-15T13:47:42.713Z,986.89
2018-01-15T13:48:42.685Z,986.88
2018-01-15T13:49:42.677Z,986.89
2018-01-15T13:50:42.673Z,986.83
2018-01-15T13:51:42.666Z,986.81
2018-01-15T13:52:42.660Z,986.77
2018-01-15T13:53:42.654Z,986.81
2018-01-15T13:54:42.845Z,986.72
2018-01-15T13:55:42.639Z,986.72
2018-01-15T13:56:42.636Z,986.68
2018-01-15T13:57:42.628Z,986.63
2018-01-15T13:58:42.620Z,986.63
2018-01-15T13:59:42.634Z,986.55
2018-01-15T14:00:42.609Z,986.55
2018-01-15T14:01:42.603Z,986.54
2018-01-15T14:02:42.596Z,986.51
2018-01-15T14:03:42.599Z,986.47
2018-01-15T14:04:42.589Z,986.44
2018-01-15T14:05:42.578Z,986.42
2018-01-15T14:06:42.570Z,986.38
2018-01-15T14:07:42.567Z,986.4
2018-01-15T14:08:42.560Z,986.39
2018-01-15T14:09:44.455Z,986.36
2018-01-15T14:10:42.549Z,986.3
2018-01-15T14:11:42.550Z,986.32
2018-01-15T14:12:42.537Z,986.28
2018-01-15T14:13:42.535Z,986.29
2018-01-15T14:14:42.521Z,986.22
2018-01-15T14:15:42.516Z,986.15
2018-01-15T14:16:42.508Z,986.16
2018-01-15T14:17:42.503Z,986.1
2018-01-15T14:18:42.499Z,986.07
2018-01-15T14:19:42.496Z,986.02
2018-01-15T14:20:42.488Z,986.04
2018-01-15T14:21:42.480Z,986.04
2018-01-15T14:22:42.479Z,986.11
2018-01-15T14:23:42.466Z,986.05
2018-01-15T14:24:42.463Z,986.05
2018-01-15T14:25:42.450Z,985.93
2018-01-15T14:26:42.448Z,985.9
2018-01-15T14:27:42.438Z,985.94
2018-01-15T14:28:42.439Z,985.95
2018-01-15T14:29:42.431Z,985.87
2018-01-15T14:30:42.422Z,985.85
2018-01-15T14:31:42.413Z,985.86
2018-01-15T14:32:42.406Z,985.81
2018-01-15T14:33:42.399Z,985.76
2018-01-15T14:34:42.393Z,985.73
2018-01-15T14:35:42.393Z,985.75
2018-01-15T14:36:42.380Z,985.66
2018-01-15T14:37:42.574Z,985.59
2018-01-15T14:38:42.381Z,985.57
2018-01-15T14:39:42.361Z,985.53
2018-01-15T14:40:42.361Z,985.48
2018-01-15T14:41:42.347Z,985.41
2018-01-15T14:42:42.339Z,985.43
2018-01-15T14:43:42.333Z,985.44
2018-01-15T14:44:42.325Z,985.45
2018-01-15T14:45:42.323Z,985.39
2018-01-15T14:46:42.322Z,985.42
2018-01-15T14:47:42.305Z,985.37
2018-01-15T14:48:42.299Z,985.4
2018-01-15T14:49:42.292Z,985.33
2018-01-15T14:50:42.286Z,985.28
2018-01-15T14:51:42.279Z,985.25
2018-01-15T14:52:42.280Z,985.24
2018-01-15T14:53:42.264Z,985.2
2018-01-15T14:54:42.257Z,985.17
2018-01-15T14:55:42.250Z,985.1
2018-01-15T14:56:42.245Z,985.13
2018-01-15T14:57:42.238Z,985.07
2018-01-15T14:58:42.231Z,985.06
2018-01-15T14:59:42.224Z,985.03
2018-01-15T15:00:42.216Z,984.97
2018-01-15T15:01:42.209Z,984.91
2018-01-15T15:02:42.203Z,984.88
2018-01-15T15:03:42.196Z,984.82
2018-01-15T15:04:42.190Z,984.87
2018-01-15T15:05:42.182Z,984.81
2018-01-15T15:06:42.177Z,984.73
2018-01-15T15:07:42.169Z,984.69
2018-01-15T15:08:42.165Z,984.7
2018-01-15T15:09:42.157Z,984.65
2018-01-15T15:10:42.164Z,984.59
2018-01-15T15:11:42.141Z,984.57
2018-01-15T15:12:42.139Z,984.53
2018-01-15T15:13:42.139Z,984.46
2018-01-15T15:14:42.119Z,984.41
2018-01-15T15:15:42.249Z,984.4
2018-01-15T15:16:42.121Z,984.33
2018-01-15T15:17:42.152Z,984.31
2018-01-15T15:18:42.108Z,984.27
2018-01-15T15:19:42.104Z,984.25
2018-01-15T15:20:42.079Z,984.18
2018-01-15T15:21:42.089Z,984.19
2018-01-15T15:22:42.115Z,984.21
2018-01-15T15:23:42.058Z,984.15
2018-01-15T15:24:42.052Z,984.15
2018-01-15T15:25:42.055Z,984.11
2018-01-15T15:26:42.080Z,984.04
2018-01-15T15:27:42.054Z,983.99
2018-01-15T15:28:42.028Z,984.05
2018-01-15T15:29:42.032Z,984
2018-01-15T15:30:42.010Z,983.96
2018-01-15T15:31:42.011Z,983.93
2018-01-15T15:32:41.997Z,983.86
2018-01-15T15:33:42.000Z,983.84
2018-01-15T15:34:41.984Z,983.78
2018-01-15T15:35:41.971Z,983.79
2018-01-15T15:36:41.963Z,983.76
2018-01-15T15:37:41.962Z,983.72
2018-01-15T15:38:41.981Z,983.67
2018-01-15T15:39:41.956Z,983.69
2018-01-15T15:40:41.945Z,983.7
2018-01-15T15:41:41.947Z,983.71
2018-01-15T15:42:41.923Z,983.73
2018-01-15T15:43:41.923Z,983.78
2018-01-15T15:44:41.924Z,983.78
2018-01-15T15:45:41.911Z,983.78
2018-01-15T15:46:41.889Z,983.84
2018-01-15T15:47:41.893Z,983.76
2018-01-15T15:48:41.880Z,983.73
2018-01-15T15:49:41.893Z,983.63
2018-01-15T15:50:41.893Z,983.58
2018-01-15T15:51:41.853Z,983.57
2018-01-15T15:52:41.853Z,983.54
2018-01-15T15:53:41.840Z,983.51
2018-01-15T15:54:41.839Z,983.47
2018-01-15T15:55:41.825Z,983.49
2018-01-15T15:56:41.818Z,983.51
2018-01-15T15:57:41.806Z,983.51
2018-01-15T15:58:41.797Z,983.52
2018-01-15T15:59:41.793Z,983.54
2018-01-15T16:00:41.789Z,983.54
2018-01-15T16:01:41.778Z,983.46
2018-01-15T16:02:41.769Z,983.41
2018-01-15T16:03:41.768Z,983.42
2018-01-15T16:04:41.753Z,983.43
2018-01-15T16:05:41.750Z,983.42
2018-01-15T16:06:41.738Z,983.41
2018-01-15T16:07:41.732Z,983.41
2018-01-15T16:08:41.726Z,983.37
2018-01-15T16:09:41.716Z,983.4
2018-01-15T16:10:41.713Z,983.39
2018-01-15T16:11:41.702Z,983.37
2018-01-15T16:12:41.698Z,983.33
2018-01-15T16:13:41.687Z,983.31
2018-01-15T16:14:41.681Z,983.32
2018-01-15T16:15:41.674Z,983.34
2018-01-15T16:16:41.666Z,983.34
2018-01-15T16:17:41.657Z,983.31
2018-01-15T16:18:41.651Z,983.25
2018-01-15T16:19:41.652Z,983.26
2018-01-15T16:20:41.636Z,983.25
2018-01-15T16:21:41.637Z,983.26
2018-01-15T16:22:41.621Z,983.33
2018-01-15T16:23:41.613Z,983.34
2018-01-15T16:24:41.608Z,983.4
2018-01-15T16:25:41.609Z,983.41
2018-01-15T16:26:41.595Z,983.35
2018-01-15T16:27:41.585Z,983.32
2018-01-15T16:28:41.578Z,983.35
2018-01-15T16:29:41.573Z,983.33
2018-01-15T16:30:41.568Z,983.32
2018-01-15T16:31:41.555Z,983.32
2018-01-15T16:32:41.550Z,983.31
2018-01-15T16:33:41.558Z,983.26
2018-01-15T16:34:41.535Z,983.26
2018-01-15T16:35:41.530Z,983.25
2018-01-15T16:36:41.520Z,983.23
2018-01-15T16:37:41.514Z,983.19
2018-01-15T16:38:41.506Z,983.08
2018-01-15T16:39:41.498Z,983.13
2018-01-15T16:40:41.495Z,983.05
2018-01-15T16:41:46.842Z,982.98
2018-01-15T16:42:41.478Z,983.03
2018-01-15T16:43:41.470Z,982.97
2018-01-15T16:44:41.463Z,982.84
2018-01-15T16:45:41.456Z,982.91
2018-01-15T16:46:41.449Z,982.81
2018-01-15T16:47:41.496Z,982.74
2018-01-15T16:48:41.436Z,982.74
2018-01-15T16:49:41.427Z,982.71
2018-01-15T16:50:41.420Z,982.68
2018-01-15T16:51:41.413Z,982.63
2018-01-15T16:52:41.404Z,982.58
2018-01-15T16:53:41.397Z,982.53
2018-01-15T16:54:41.389Z,982.52
2018-01-15T16:55:41.391Z,982.48
2018-01-15T16:56:41.377Z,982.51
2018-01-15T16:57:41.367Z,982.47
2018-01-15T16:58:41.361Z,982.54
2018-01-15T16:59:41.354Z,982.5
2018-01-15T17:00:41.346Z,982.48
2018-01-15T17:01:41.337Z,982.49
2018-01-15T17:02:41.333Z,982.48
2018-01-15T17:03:41.332Z,982.48
2018-01-15T17:04:41.316Z,982.42
2018-01-15T17:05:41.309Z,982.47
2018-01-15T17:06:41.302Z,982.42
2018-01-15T17:07:41.309Z,982.41
2018-01-15T17:08:41.286Z,982.34
2018-01-15T17:09:41.282Z,982.31
2018-01-15T17:10:41.289Z,982.29
2018-01-15T17:11:41.265Z,982.26
2018-01-15T17:12:41.257Z,982.27
2018-01-15T17:13:41.261Z,982.22
2018-01-15T17:14:41.248Z,982.17
2018-01-15T17:15:41.236Z,982.11
2018-01-15T17:16:41.246Z,982.1
2018-01-15T17:17:41.236Z,982.12
2018-01-15T17:18:41.213Z,982.11
2018-01-15T17:19:41.207Z,982.14
2018-01-15T17:20:41.201Z,982.08
2018-01-15T17:21:41.190Z,982.02
2018-01-15T17:22:41.182Z,982.08
2018-01-15T17:23:41.177Z,982.04
2018-01-15T17:24:41.170Z,982
2018-01-15T17:25:41.172Z,982.05
2018-01-15T17:26:41.610Z,982.01
2018-01-15T17:27:41.921Z,981.98
2018-01-15T17:28:41.157Z,982
2018-01-15T17:29:41.141Z,981.98
2018-01-15T17:30:41.124Z,982.02
2018-01-15T17:31:41.117Z,981.97
2018-01-15T17:32:41.261Z,981.96
2018-01-15T17:33:41.103Z,981.94
2018-01-15T17:34:41.096Z,981.87
2018-01-15T17:35:41.087Z,981.85
2018-01-15T17:36:41.079Z,981.76
2018-01-15T17:37:41.073Z,981.72
2018-01-15T17:38:41.064Z,981.6
2018-01-15T17:39:41.058Z,981.57
2018-01-15T17:40:41.052Z,981.5
2018-01-15T17:41:41.043Z,981.47
2018-01-15T17:42:41.036Z,981.47
2018-01-15T17:43:41.030Z,981.49
2018-01-15T17:44:41.021Z,981.46
2018-01-15T17:45:41.014Z,981.45
2018-01-15T17:46:41.008Z,981.47
2018-01-15T17:47:41.001Z,981.41
2018-01-15T17:48:40.996Z,981.37
2018-01-15T17:49:40.987Z,981.39
2018-01-15T17:50:40.980Z,981.4
2018-01-15T17:51:40.972Z,981.4
2018-01-15T17:52:40.964Z,981.36
2018-01-15T17:53:40.957Z,981.41
2018-01-15T17:54:40.949Z,981.47
2018-01-15T17:55:40.942Z,981.38
2018-01-15T17:56:40.936Z,981.34
2018-01-15T17:57:40.925Z,981.44
2018-01-15T17:58:40.922Z,981.37
2018-01-15T17:59:40.913Z,981.38
2018-01-15T18:00:40.903Z,981.41
2018-01-15T18:01:40.896Z,981.3
2018-01-15T18:02:40.889Z,981.33
2018-01-15T18:03:40.886Z,981.33
2018-01-15T18:04:40.873Z,981.3
2018-01-15T18:05:40.870Z,981.25
2018-01-15T18:06:40.862Z,981.2
2018-01-15T18:07:40.856Z,981.14
2018-01-15T18:08:40.844Z,981.16
2018-01-15T18:09:40.838Z,981.13
2018-01-15T18:10:40.830Z,981.1
2018-01-15T18:11:40.822Z,981.09
2018-01-15T18:12:40.814Z,981.04
2018-01-15T18:13:40.807Z,981.02
2018-01-15T18:14:40.800Z,980.96
2018-01-15T18:15:40.792Z,980.91
2018-01-15T18:16:40.787Z,980.94
2018-01-15T18:17:40.778Z,980.88
2018-01-15T18:18:40.770Z,980.84
2018-01-15T18:19:40.763Z,980.89
2018-01-15T18:20:40.758Z,980.87
2018-01-15T18:21:40.747Z,980.84
2018-01-15T18:22:40.742Z,980.86
2018-01-15T18:23:40.736Z,980.86
2018-01-15T18:24:40.741Z,980.87
2018-01-15T18:25:40.720Z,980.86
2018-01-15T18:26:40.711Z,980.84
2018-01-15T18:27:40.708Z,980.73
2018-01-15T18:28:40.695Z,980.74
2018-01-15T18:29:40.688Z,980.76
2018-01-15T18:30:40.681Z,980.77
2018-01-15T18:31:40.674Z,980.76
2018-01-15T18:32:40.667Z,980.72
2018-01-15T18:33:40.659Z,980.73
2018-01-15T18:34:40.652Z,980.74
2018-01-15T18:35:40.645Z,980.66
2018-01-15T18:36:40.635Z,980.69
2018-01-15T18:37:40.630Z,980.69
2018-01-15T18:38:40.623Z,980.6
2018-01-15T18:39:40.617Z,980.61
2018-01-15T18:40:40.608Z,980.6
2018-01-15T18:41:40.602Z,980.58
2018-01-15T18:42:40.597Z,980.56
2018-01-15T18:43:40.586Z,980.55
2018-01-15T18:44:40.580Z,980.55
2018-01-15T18:45:40.572Z,980.57
2018-01-15T18:46:40.565Z,980.57
2018-01-15T18:47:40.559Z,980.56
2018-01-15T18:48:40.554Z,980.49
2018-01-15T18:49:40.544Z,980.5
2018-01-15T18:50:40.538Z,980.5
2018-01-15T18:51:40.528Z,980.51
2018-01-15T18:52:40.523Z,980.52
2018-01-15T18:53:40.516Z,980.5
2018-01-15T18:54:40.506Z,980.52
2018-01-15T18:55:40.500Z,980.5
2018-01-15T18:56:40.494Z,980.52
2018-01-15T18:57:40.486Z,980.5
2018-01-15T18:58:40.479Z,980.46
2018-01-15T18:59:40.475Z,980.42
2018-01-15T19:00:40.466Z,980.44
2018-01-15T19:01:40.457Z,980.35
2018-01-15T19:02:40.449Z,980.29
2018-01-15T19:03:40.444Z,980.29
2018-01-15T19:04:40.438Z,980.2
2018-01-15T19:05:40.441Z,980.26
2018-01-15T19:06:40.423Z,980.24
2018-01-15T19:07:40.427Z,980.22
2018-01-15T19:08:40.414Z,980.22
2018-01-15T19:09:40.402Z,980.19
2018-01-15T19:10:40.393Z,980.15
2018-01-15T19:11:40.387Z,980.17
2018-01-15T19:12:40.378Z,980.17
2018-01-15T19:13:40.623Z,980.14
2018-01-15T19:14:40.379Z,980.13
2018-01-15T19:15:40.359Z,980.09
2018-01-15T19:16:40.350Z,980.06
2018-01-15T19:17:40.347Z,980.04
2018-01-15T19:18:40.335Z,980.05
2018-01-15T19:19:40.338Z,980.07
2018-01-15T19:20:40.330Z,980.02
2018-01-15T19:21:40.315Z,979.97
2018-01-15T19:22:40.308Z,979.94
2018-01-15T19:23:40.299Z,979.89
2018-01-15T19:24:40.292Z,979.92
2018-01-15T19:25:40.297Z,979.92
2018-01-15T19:26:40.291Z,979.93
2018-01-15T19:27:40.269Z,979.86
2018-01-15T19:28:40.282Z,979.82
2018-01-15T19:29:40.256Z,979.78
2018-01-15T19:30:40.249Z,979.79
2018-01-15T19:31:40.243Z,979.78
2018-01-15T19:32:40.241Z,979.8
2018-01-15T19:33:40.228Z,979.78
2018-01-15T19:34:40.234Z,979.77
2018-01-15T19:35:40.223Z,979.75
2018-01-15T19:36:40.208Z,979.74
2018-01-15T19:37:40.198Z,979.77
2018-01-15T19:38:40.190Z,979.73
2018-01-15T19:39:40.188Z,979.72
2018-01-15T19:40:40.178Z,979.68
2018-01-15T19:41:40.167Z,979.62
2018-01-15T19:42:40.169Z,979.63
2018-01-15T19:43:45.420Z,979.56
2018-01-15T19:44:40.152Z,979.59
2018-01-15T19:45:40.150Z,979.61
2018-01-15T19:46:40.132Z,979.56
2018-01-15T19:47:40.127Z,979.54
2018-01-15T19:48:40.118Z,979.48
2018-01-15T19:49:40.122Z,979.51
2018-01-15T19:50:40.104Z,979.48
2018-01-15T19:51:40.104Z,979.44
2018-01-15T19:52:40.088Z,979.38
2018-01-15T19:53:40.091Z,979.31
2018-01-15T19:54:40.086Z,979.33
2018-01-15T19:55:40.081Z,979.2
2018-01-15T19:56:40.059Z,979.17
2018-01-15T19:57:40.051Z,979.2
2018-01-15T19:58:40.045Z,979.18
2018-01-15T19:59:40.055Z,979.2
2018-01-15T20:00:40.041Z,979.08
2018-01-15T20:01:40.023Z,978.98
2018-01-15T20:02:40.016Z,978.96
2018-01-15T20:03:40.019Z,978.96
2018-01-15T20:04:40.004Z,978.94
2018-01-15T20:05:40.005Z,978.86
2018-01-15T20:06:39.985Z,978.81
2018-01-15T20:07:40.000Z,978.75
2018-01-15T20:08:39.985Z,978.75
2018-01-15T20:09:39.964Z,978.74
2018-01-15T20:10:39.959Z,978.68
2018-01-15T20:11:39.949Z,978.62
2018-01-15T20:12:39.943Z,978.57
2018-01-15T20:13:39.934Z,978.5
2018-01-15T20:14:39.924Z,978.51
2018-01-15T20:15:39.916Z,978.38
2018-01-15T20:16:39.923Z,978.39
2018-01-15T20:17:39.906Z,978.39
2018-01-15T20:18:39.903Z,978.32
2018-01-15T20:19:39.902Z,978.19
2018-01-15T20:20:39.883Z,978.13
2018-01-15T20:21:39.885Z,978.21
2018-01-15T20:22:39.871Z,978.29
2018-01-15T20:23:39.861Z,978.23
2018-01-15T20:24:39.865Z,978.14
2018-01-15T20:25:39.901Z,978.3
2018-01-15T20:26:39.835Z,978.21
2018-01-15T20:27:39.839Z,978.21
2018-01-15T20:28:39.821Z,978.21
2018-01-15T20:29:39.811Z,978.16
2018-01-15T20:30:39.817Z,978.1
2018-01-15T20:31:39.797Z,978.03
2018-01-15T20:32:39.791Z,978
2018-01-15T20:33:39.797Z,977.95
2018-01-15T20:34:39.790Z,977.96
2018-01-15T20:35:39.783Z,977.9
2018-01-15T20:36:39.758Z,977.87
2018-01-15T20:37:39.764Z,977.88
2018-01-15T20:38:39.744Z,977.86
2018-01-15T20:39:39.749Z,977.92
2018-01-15T20:40:39.731Z,977.91
2018-01-15T20:41:39.737Z,977.97
2018-01-15T20:42:39.728Z,977.89
2018-01-15T20:43:39.720Z,977.92
2018-01-15T20:44:40.064Z,977.93
2018-01-15T20:45:39.706Z,977.93
2018-01-15T20:46:39.698Z,977.83
2018-01-15T20:47:39.698Z,977.95
2018-01-15T20:48:39.683Z,977.85
2018-01-15T20:49:39.662Z,977.91
2018-01-15T20:50:39.678Z,977.86
2018-01-15T20:51:39.664Z,977.86
2018-01-15T20:52:39.662Z,977.83
2018-01-15T20:53:39.643Z,977.84
2018-01-15T20:54:39.623Z,977.79
2018-01-15T20:55:39.633Z,977.89
2018-01-15T20:56:39.645Z,977.86
2018-01-15T20:57:39.605Z,977.87
2018-01-15T20:58:39.623Z,977.76
2018-01-15T20:59:39.587Z,977.79
2018-01-15T21:00:39.594Z,977.74
2018-01-15T21:01:39.589Z,977.84
2018-01-15T21:02:39.581Z,977.85
2018-01-15T21:03:39.570Z,977.75
2018-01-15T21:04:39.575Z,977.79
2018-01-15T21:05:39.556Z,977.69
2018-01-15T21:06:39.536Z,977.59
2018-01-15T21:07:39.542Z,977.63
2018-01-15T21:08:39.537Z,977.66
2018-01-15T21:09:39.539Z,977.71
2018-01-15T21:10:39.522Z,977.71
2018-01-15T21:11:39.522Z,977.58
2018-01-15T21:12:39.508Z,977.62
2018-01-15T21:13:39.507Z,977.63
2018-01-15T21:14:40.499Z,977.7
2018-01-15T21:15:39.488Z,977.57
2018-01-15T21:16:39.480Z,977.63
2018-01-15T21:17:39.477Z,977.51
2018-01-15T21:18:39.473Z,977.53
2018-01-15T21:19:39.474Z,977.47
2018-01-15T21:20:39.468Z,977.4
2018-01-15T21:21:39.446Z,977.48
2018-01-15T21:22:39.431Z,977.44
2018-01-15T21:23:39.429Z,977.47
2018-01-15T21:24:39.426Z,977.4
2018-01-15T21:25:39.421Z,977.38
2018-01-15T21:26:39.420Z,977.39
2018-01-15T21:27:39.405Z,977.41
2018-01-15T21:28:39.402Z,977.49
2018-01-15T21:29:39.373Z,977.37
2018-01-15T21:30:39.387Z,977.26
2018-01-15T21:31:39.376Z,977.36
2018-01-15T21:32:39.359Z,977.33
2018-01-15T21:33:39.344Z,977.32
2018-01-15T21:34:39.344Z,977.34
2018-01-15T21:35:39.352Z,977.23
2018-01-15T21:36:39.331Z,977.29
2018-01-15T21:37:39.328Z,977.25
2018-01-15T21:38:39.322Z,977.22
2018-01-15T21:39:39.313Z,977.22
2018-01-15T21:40:39.293Z,977.22
2018-01-15T21:41:39.291Z,977.33
2018-01-15T21:42:39.273Z,977.16
2018-01-15T21:43:39.266Z,976.96
2018-01-15T21:44:39.276Z,977.12
2018-01-15T21:45:39.279Z,977.19
2018-01-15T21:46:39.246Z,977.11
2018-01-15T21:47:39.254Z,977.12
2018-01-15T21:48:39.237Z,977.14
2018-01-15T21:49:39.237Z,977.12
2018-01-15T21:50:39.214Z,977.13
2018-01-15T21:51:39.208Z,977.17
2018-01-15T21:52:39.204Z,977.14
2018-01-15T21:53:39.206Z,977.15
2018-01-15T21:54:39.196Z,977.07
2018-01-15T21:55:39.190Z,977.11
2018-01-15T21:56:39.182Z,977.19
2018-01-15T21:57:39.183Z,977.08
2018-01-15T21:58:39.168Z,977.2
2018-01-15T21:59:39.149Z,977.14
2018-01-15T22:00:39.140Z,977.1
2018-01-15T22:01:39.145Z,977.14
2018-01-15T22:02:39.138Z,977.08
2018-01-15T22:03:39.134Z,977.13
2018-01-15T22:04:39.124Z,977.06
2018-01-15T22:05:39.106Z,977.07
2018-01-15T22:06:39.103Z,976.99
2018-01-15T22:07:39.107Z,977.02
2018-01-15T22:08:39.097Z,977.04
2018-01-15T22:09:39.087Z,977.12
2018-01-15T22:10:39.069Z,977.04
2018-01-15T22:11:39.063Z,976.99
2018-01-15T22:12:39.054Z,977
2018-01-15T22:13:39.047Z,976.97
2018-01-15T22:14:39.042Z,976.9
2018-01-15T22:15:39.032Z,976.98
2018-01-15T22:16:39.105Z,976.99
2018-01-15T22:17:39.136Z,977
2018-01-15T22:18:39.063Z,977.01
2018-01-15T22:19:39.088Z,977.01
2018-01-15T22:20:39.016Z,977
2018-01-15T22:21:39.029Z,977.16
2018-01-15T22:22:39.047Z,977.11
2018-01-15T22:23:39.019Z,976.99
2018-01-15T22:24:39.037Z,976.9
2018-01-15T22:25:39.038Z,976.93
2018-01-15T22:26:38.952Z,976.99
2018-01-15T22:27:38.968Z,976.97
2018-01-15T22:28:38.963Z,976.94
2018-01-15T22:29:38.953Z,977.09
2018-01-15T22:30:39.057Z,976.97
2018-01-15T22:31:38.978Z,976.9
2018-01-15T22:32:38.984Z,976.84
2018-01-15T22:33:38.929Z,977
2018-01-15T22:34:38.907Z,976.81
2018-01-15T22:35:38.923Z,976.83
2018-01-15T22:36:38.926Z,976.77
2018-01-15T22:37:38.884Z,976.97
2018-01-15T22:38:38.915Z,976.9
2018-01-15T22:39:38.872Z,976.82
2018-01-15T22:40:38.885Z,976.81
2018-01-15T22:41:38.875Z,976.95
2018-01-15T22:42:38.870Z,976.86
2018-01-15T22:43:38.847Z,976.81
2018-01-15T22:44:38.824Z,976.81
2018-01-15T22:45:40.870Z,976.75
2018-01-15T22:46:38.811Z,976.73
2018-01-15T22:47:38.805Z,976.78
2018-01-15T22:48:38.795Z,976.83
2018-01-15T22:49:38.789Z,976.93
2018-01-15T22:50:38.780Z,977
2018-01-15T22:51:38.774Z,976.91
2018-01-15T22:52:38.775Z,976.79
2018-01-15T22:53:38.760Z,976.84
2018-01-15T22:54:38.755Z,976.82
2018-01-15T22:55:38.745Z,976.7
2018-01-15T22:56:38.742Z,976.68
2018-01-15T22:57:38.732Z,976.74
2018-01-15T22:58:38.724Z,976.61
2018-01-15T22:59:38.717Z,976.63
2018-01-15T23:00:38.718Z,976.72
2018-01-15T23:01:38.703Z,976.7
2018-01-15T23:02:38.696Z,976.72
2018-01-15T23:03:38.688Z,976.66
2018-01-15T23:04:38.681Z,976.58
2018-01-15T23:05:38.674Z,976.56
2018-01-15T23:06:38.667Z,976.51
2018-01-15T23:07:38.660Z,976.51
2018-01-15T23:08:38.662Z,976.54
2018-01-15T23:09:38.646Z,976.43
2018-01-15T23:10:38.638Z,976.47
2018-01-15T23:11:38.630Z,976.51
2018-01-15T23:12:38.624Z,976.55
2018-01-15T23:13:38.617Z,976.41
2018-01-15T23:14:38.613Z,976.47
2018-01-15T23:15:38.606Z,976.43
2018-01-15T23:16:38.597Z,976.34
2018-01-15T23:17:38.588Z,976.48
2018-01-15T23:18:38.582Z,976.43
2018-01-15T23:19:38.575Z,976.39
2018-01-15T23:20:38.571Z,976.34
2018-01-15T23:21:38.569Z,976.4
2018-01-15T23:22:38.557Z,976.35
2018-01-15T23:23:38.552Z,976.34